sensor_id;sensor_type;location;lat;lon;timestamp;pressure;altitude;pressure_sealevel;temperature;humidity
11808;BME280;5961;42.640;23.380;2023-03-18T00:02:04;94420.19;;;3.99;81.97
11808;BME280;5961;42.640;23.380;2023-03-18T00:04:31;94436.75;;;3.99;82.66
11808;BME280;5961;42.640;23.380;2023-03-18T00:06:57;94417.28;;;4.00;82.03
11808;BME280;5961;42.640;23.380;2023-03-18T00:09:25;94415.69;;;3.99;82.16
11808;BME280;5961;42.640;23.380;2023-03-18T00:11:53;94417.50;;;4.04;81.99
11808;BME280;5961;42.640;23.380;2023-03-18T00:14:21;94414.38;;;4.02;82.27
11808;BME280;5961;42.640;23.380;2023-03-18T00:16:48;94394.56;;;3.85;82.15
11808;BME280;5961;42.640;23.380;2023-03-18T00:19:15;94413.69;;;3.91;81.29
11808;BME280;5961;42.640;23.380;2023-03-18T00:21:43;94404.16;;;3.76;80.32
11808;BME280;5961;42.640;23.380;2023-03-18T00:24:09;94409.19;;;3.73;78.86
11808;BME280;5961;42.640;23.380;2023-03-18T00:26:38;94399.13;;;3.56;79.47
11808;BME280;5961;42.640;23.380;2023-03-18T00:29:05;94403.34;;;3.52;79.12
11808;BME280;5961;42.640;23.380;2023-03-18T00:31:32;94392.31;;;3.26;79.49
11808;BME280;5961;42.640;23.380;2023-03-18T00:33:58;94392.84;;;3.23;80.07
11808;BME280;5961;42.640;23.380;2023-03-18T00:36:26;94379.09;;;3.08;80.63
11808;BME280;5961;42.640;23.380;2023-03-18T00:38:55;94386.75;;;3.04;81.06
11808;BME280;5961;42.640;23.380;2023-03-18T00:41:23;94380.75;;;2.99;80.93
11808;BME280;5961;42.640;23.380;2023-03-18T00:43:52;94375.13;;;2.82;81.91
11808;BME280;5961;42.640;23.380;2023-03-18T00:46:22;94354.34;;;2.56;82.52
11808;BME280;5961;42.640;23.380;2023-03-18T00:48:49;94365.53;;;2.67;82.40
11808;BME280;5961;42.640;23.380;2023-03-18T00:51:17;94315.47;;;2.30;82.67
11808;BME280;5961;42.640;23.380;2023-03-18T00:53:47;94360.41;;;2.52;83.01
11808;BME280;5961;42.640;23.380;2023-03-18T00:56:16;94333.47;;;2.36;83.64
11808;BME280;5961;42.640;23.380;2023-03-18T00:58:44;94361.34;;;2.32;83.81
11808;BME280;5961;42.640;23.380;2023-03-18T01:01:13;94341.69;;;2.30;83.87
11808;BME280;5961;42.640;23.380;2023-03-18T01:03:41;94349.81;;;2.28;84.23
11808;BME280;5961;42.640;23.380;2023-03-18T01:06:09;94347.03;;;2.14;85.08
11808;BME280;5961;42.640;23.380;2023-03-18T01:08:36;94345.94;;;2.15;85.16
11808;BME280;5961;42.640;23.380;2023-03-18T01:11:03;94344.16;;;2.11;85.11
11808;BME280;5961;42.640;23.380;2023-03-18T01:13:29;94342.59;;;2.10;85.33
11808;BME280;5961;42.640;23.380;2023-03-18T01:15:56;94339.47;;;2.08;84.56
11808;BME280;5961;42.640;23.380;2023-03-18T01:18:24;94336.56;;;2.09;84.74
11808;BME280;5961;42.640;23.380;2023-03-18T01:20:52;94329.97;;;2.12;85.23
11808;BME280;5961;42.640;23.380;2023-03-18T01:23:20;94331.56;;;2.13;84.70
11808;BME280;5961;42.640;23.380;2023-03-18T01:25:46;94336.81;;;2.13;84.81
11808;BME280;5961;42.640;23.380;2023-03-18T01:28:13;94324.22;;;2.10;84.82
11808;BME280;5961;42.640;23.380;2023-03-18T01:30:40;94326.81;;;2.15;83.97
11808;BME280;5961;42.640;23.380;2023-03-18T01:33:07;94318.50;;;2.08;83.10
11808;BME280;5961;42.640;23.380;2023-03-18T01:35:36;94325.78;;;2.16;82.47
11808;BME280;5961;42.640;23.380;2023-03-18T01:38:04;94328.38;;;2.16;83.00
11808;BME280;5961;42.640;23.380;2023-03-18T01:40:33;94329.19;;;2.16;83.20
11808;BME280;5961;42.640;23.380;2023-03-18T01:43:12;94327.59;;;2.20;82.88
11808;BME280;5961;42.640;23.380;2023-03-18T01:45:41;94328.38;;;2.16;83.53
11808;BME280;5961;42.640;23.380;2023-03-18T01:48:13;94328.69;;;2.14;83.35
11808;BME280;5961;42.640;23.380;2023-03-18T01:50:42;94298.63;;;1.97;83.46
11808;BME280;5961;42.640;23.380;2023-03-18T01:53:13;94322.16;;;2.07;83.67
11808;BME280;5961;42.640;23.380;2023-03-18T01:55:41;94318.84;;;1.91;84.33
11808;BME280;5961;42.640;23.380;2023-03-18T01:58:12;94313.84;;;1.95;84.58
11808;BME280;5961;42.640;23.380;2023-03-18T02:00:44;94313.94;;;1.80;85.20
11808;BME280;5961;42.640;23.380;2023-03-18T02:03:12;94299.88;;;1.65;85.58
11808;BME280;5961;42.640;23.380;2023-03-18T02:05:42;94317.34;;;1.80;85.60
11808;BME280;5961;42.640;23.380;2023-03-18T02:08:08;94313.94;;;1.80;85.95
11808;BME280;5961;42.640;23.380;2023-03-18T02:10:36;94303.75;;;1.73;85.92
11808;BME280;5961;42.640;23.380;2023-03-18T02:13:06;94308.31;;;1.47;87.29
11808;BME280;5961;42.640;23.380;2023-03-18T02:15:38;94307.78;;;1.50;87.39
11808;BME280;5961;42.640;23.380;2023-03-18T02:18:08;94298.94;;;1.41;87.79
11808;BME280;5961;42.640;23.380;2023-03-18T02:20:44;94312.78;;;1.47;87.85
11808;BME280;5961;42.640;23.380;2023-03-18T02:23:20;94308.31;;;1.47;87.97
11808;BME280;5961;42.640;23.380;2023-03-18T02:25:52;94313.56;;;1.47;87.69
11808;BME280;5961;42.640;23.380;2023-03-18T02:28:24;94316.19;;;1.42;88.18
11808;BME280;5961;42.640;23.380;2023-03-18T02:30:54;94295.31;;;1.22;88.00
11808;BME280;5961;42.640;23.380;2023-03-18T02:33:25;94295.84;;;1.29;88.26
11808;BME280;5961;42.640;23.380;2023-03-18T02:35:56;94297.41;;;1.25;88.21
11808;BME280;5961;42.640;23.380;2023-03-18T02:38:26;94301.06;;;1.29;88.64
11808;BME280;5961;42.640;23.380;2023-03-18T02:40:52;94308.91;;;1.29;88.40
11808;BME280;5961;42.640;23.380;2023-03-18T02:43:23;94309.47;;;1.26;88.67
11808;BME280;5961;42.640;23.380;2023-03-18T02:46:03;94264.53;;;0.99;88.40
11808;BME280;5961;42.640;23.380;2023-03-18T02:48:35;94286.44;;;1.18;88.82
11808;BME280;5961;42.640;23.380;2023-03-18T02:51:04;94303.75;;;1.14;89.39
11808;BME280;5961;42.640;23.380;2023-03-18T02:53:31;94306.88;;;1.06;90.46
11808;BME280;5961;42.640;23.380;2023-03-18T02:55:58;94329.19;;;0.93;91.48
11808;BME280;5961;42.640;23.380;2023-03-18T02:58:27;94299.34;;;0.89;91.75
11808;BME280;5961;42.640;23.380;2023-03-18T03:00:54;94271.94;;;0.62;92.34
11808;BME280;5961;42.640;23.380;2023-03-18T03:03:22;94293.63;;;0.77;92.98
11808;BME280;5961;42.640;23.380;2023-03-18T03:05:49;94294.66;;;0.71;93.30
11808;BME280;5961;42.640;23.380;2023-03-18T03:08:16;94290.00;;;0.63;93.70
11808;BME280;5961;42.640;23.380;2023-03-18T03:10:42;94301.22;;;0.59;94.26
11808;BME280;5961;42.640;23.380;2023-03-18T03:13:09;94302.25;;;0.57;94.81
11808;BME280;5961;42.640;23.380;2023-03-18T03:15:38;94299.66;;;0.57;94.76
11808;BME280;5961;42.640;23.380;2023-03-18T03:18:06;94305.41;;;0.54;94.28
11808;BME280;5961;42.640;23.380;2023-03-18T03:20:33;94296.00;;;0.53;94.50
11808;BME280;5961;42.640;23.380;2023-03-18T03:23:02;94283.47;;;0.40;94.59
11808;BME280;5961;42.640;23.380;2023-03-18T03:25:29;94276.13;;;0.37;94.66
11808;BME280;5961;42.640;23.380;2023-03-18T03:27:57;94309.34;;;0.47;94.81
11808;BME280;5961;42.640;23.380;2023-03-18T03:30:23;94310.66;;;0.44;94.65
11808;BME280;5961;42.640;23.380;2023-03-18T03:32:52;94305.41;;;0.34;94.97
11808;BME280;5961;42.640;23.380;2023-03-18T03:35:19;94303.84;;;0.33;94.86
11808;BME280;5961;42.640;23.380;2023-03-18T03:37:46;94316.66;;;0.25;95.58
11808;BME280;5961;42.640;23.380;2023-03-18T03:40:15;94306.97;;;0.10;96.50
11808;BME280;5961;42.640;23.380;2023-03-18T03:42:43;94318.22;;;0.11;97.00
11808;BME280;5961;42.640;23.380;2023-03-18T03:45:11;94316.41;;;0.11;97.40
11808;BME280;5961;42.640;23.380;2023-03-18T03:47:38;94314.81;;;0.10;96.72
11808;BME280;5961;42.640;23.380;2023-03-18T03:50:08;94289.47;;;0.00;96.14
11808;BME280;5961;42.640;23.380;2023-03-18T03:52:36;94315.59;;;0.11;96.16
11808;BME280;5961;42.640;23.380;2023-03-18T03:55:04;94123.00;;;-1.15;95.63
11808;BME280;5961;42.640;23.380;2023-03-18T03:57:31;94304.38;;;0.05;95.60
11808;BME280;5961;42.640;23.380;2023-03-18T03:59:58;94306.47;;;0.08;95.00
11808;BME280;5961;42.640;23.380;2023-03-18T04:02:25;94317.44;;;0.20;94.30
11808;BME280;5961;42.640;23.380;2023-03-18T04:04:52;94321.13;;;0.29;93.63
11808;BME280;5961;42.640;23.380;2023-03-18T04:07:20;94324.50;;;0.30;92.97
11808;BME280;5961;42.640;23.380;2023-03-18T04:09:46;94326.59;;;0.33;92.77
11808;BME280;5961;42.640;23.380;2023-03-18T04:12:13;94350.38;;;0.31;93.06
11808;BME280;5961;42.640;23.380;2023-03-18T04:14:42;94334.72;;;0.41;93.19
11808;BME280;5961;42.640;23.380;2023-03-18T04:17:09;94345.16;;;0.46;93.19
11808;BME280;5961;42.640;23.380;2023-03-18T04:19:36;94337.31;;;0.51;92.73
11808;BME280;5961;42.640;23.380;2023-03-18T04:22:03;94343.59;;;0.55;92.46
11808;BME280;5961;42.640;23.380;2023-03-18T04:24:31;94357.19;;;0.47;92.85
11808;BME280;5961;42.640;23.380;2023-03-18T04:26:58;94343.31;;;0.32;94.09
11808;BME280;5961;42.640;23.380;2023-03-18T04:29:25;94355.84;;;0.25;94.45
11808;BME280;5961;42.640;23.380;2023-03-18T04:31:52;94355.59;;;0.16;94.72
11808;BME280;5961;42.640;23.380;2023-03-18T04:34:19;94346.97;;;0.11;95.07
11808;BME280;5961;42.640;23.380;2023-03-18T04:36:46;94360.56;;;0.18;95.85
11808;BME280;5961;42.640;23.380;2023-03-18T04:39:13;94352.44;;;-0.01;96.57
11808;BME280;5961;42.640;23.380;2023-03-18T04:41:41;94359.25;;;0.15;97.02
11808;BME280;5961;42.640;23.380;2023-03-18T04:44:08;94368.41;;;0.18;96.53
11808;BME280;5961;42.640;23.380;2023-03-18T04:46:35;94355.59;;;0.11;97.40
11808;BME280;5961;42.640;23.380;2023-03-18T04:49:02;94366.56;;;0.18;96.88
11808;BME280;5961;42.640;23.380;2023-03-18T04:51:28;94375.72;;;0.16;97.20
11808;BME280;5961;42.640;23.380;2023-03-18T04:53:55;94361.34;;;0.13;96.73
11808;BME280;5961;42.640;23.380;2023-03-18T04:56:22;94369.19;;;0.18;96.98
11808;BME280;5961;42.640;23.380;2023-03-18T04:58:51;94376.78;;;0.20;96.55
11808;BME280;5961;42.640;23.380;2023-03-18T05:01:18;94367.63;;;0.22;96.37
11808;BME280;5961;42.640;23.380;2023-03-18T05:03:44;94333.34;;;-0.02;96.10
11808;BME280;5961;42.640;23.380;2023-03-18T05:06:19;94366.84;;;0.32;95.15
11808;BME280;5961;42.640;23.380;2023-03-18T05:08:47;94368.16;;;0.29;94.96
11808;BME280;5961;42.640;23.380;2023-03-18T05:11:14;94360.06;;;0.26;94.45
11808;BME280;5961;42.640;23.380;2023-03-18T05:13:40;94367.09;;;0.30;94.29
11808;BME280;5961;42.640;23.380;2023-03-18T05:16:08;94344.63;;;0.14;93.78
11808;BME280;5961;42.640;23.380;2023-03-18T05:18:35;94364.50;;;0.35;93.46
11808;BME280;5961;42.640;23.380;2023-03-18T05:21:03;94362.94;;;0.39;92.33
11808;BME280;5961;42.640;23.380;2023-03-18T05:23:31;94366.59;;;0.38;92.52
11808;BME280;5961;42.640;23.380;2023-03-18T05:25:59;94352.47;;;0.34;92.26
11808;BME280;5961;42.640;23.380;2023-03-18T05:28:26;94361.88;;;0.45;92.36
11808;BME280;5961;42.640;23.380;2023-03-18T05:30:53;94352.75;;;0.48;91.65
11808;BME280;5961;42.640;23.380;2023-03-18T05:33:21;94365.84;;;0.63;92.16
11808;BME280;5961;42.640;23.380;2023-03-18T05:35:48;94363.72;;;0.65;90.96
11808;BME280;5961;42.640;23.380;2023-03-18T05:38:14;94357.72;;;0.75;90.63
11808;BME280;5961;42.640;23.380;2023-03-18T05:40:41;94354.81;;;0.76;90.43
11808;BME280;5961;42.640;23.380;2023-03-18T05:43:08;94362.66;;;0.86;89.93
11808;BME280;5961;42.640;23.380;2023-03-18T05:45:35;94355.59;;;0.92;89.92
11808;BME280;5961;42.640;23.380;2023-03-18T05:48:02;94366.56;;;1.04;89.51
11808;BME280;5961;42.640;23.380;2023-03-18T05:50:32;94368.63;;;1.12;89.30
11808;BME280;5961;42.640;23.380;2023-03-18T05:53:00;94372.81;;;1.23;89.36
11808;BME280;5961;42.640;23.380;2023-03-18T05:55:27;94375.41;;;1.33;89.30
11808;BME280;5961;42.640;23.380;2023-03-18T05:57:54;94376.16;;;1.44;89.04
11808;BME280;5961;42.640;23.380;2023-03-18T06:00:22;94384.50;;;1.56;88.98
11808;BME280;5961;42.640;23.380;2023-03-18T06:02:50;94375.59;;;1.57;88.82
11808;BME280;5961;42.640;23.380;2023-03-18T06:05:18;94389.41;;;1.73;89.03
11808;BME280;5961;42.640;23.380;2023-03-18T06:07:47;94389.38;;;1.83;88.88
11808;BME280;5961;42.640;23.380;2023-03-18T06:10:14;94388.06;;;1.85;89.01
11808;BME280;5961;42.640;23.380;2023-03-18T06:12:41;94392.97;;;1.97;88.97
11808;BME280;5961;42.640;23.380;2023-03-18T06:15:10;94388.19;;;2.09;92.34
11808;BME280;5961;42.640;23.380;2023-03-18T06:17:38;94376.16;;;2.08;90.22
11808;BME280;5961;42.640;23.380;2023-03-18T06:20:06;94394.13;;;2.30;88.31
11808;BME280;5961;42.640;23.380;2023-03-18T06:22:34;94396.19;;;2.38;87.82
11808;BME280;5961;42.640;23.380;2023-03-18T06:25:03;94392.19;;;2.45;86.95
11808;BME280;5961;42.640;23.380;2023-03-18T06:27:32;94391.88;;;2.52;87.26
11808;BME280;5961;42.640;23.380;2023-03-18T06:29:59;94394.97;;;2.59;87.02
11808;BME280;5961;42.640;23.380;2023-03-18T06:32:27;94398.06;;;2.66;87.18
11808;BME280;5961;42.640;23.380;2023-03-18T06:34:54;94388.84;;;2.73;87.28
11808;BME280;5961;42.640;23.380;2023-03-18T06:37:21;94392.44;;;2.83;87.72
11808;BME280;5961;42.640;23.380;2023-03-18T06:39:48;94383.28;;;2.80;88.08
11808;BME280;5961;42.640;23.380;2023-03-18T06:42:16;94374.56;;;2.85;88.00
11808;BME280;5961;42.640;23.380;2023-03-18T06:44:43;94372.19;;;2.88;88.14
11808;BME280;5961;42.640;23.380;2023-03-18T06:47:15;94370.53;;;2.97;87.88
11808;BME280;5961;42.640;23.380;2023-03-18T06:49:42;94368.09;;;3.06;88.02
11808;BME280;5961;42.640;23.380;2023-03-18T06:52:09;94370.13;;;3.14;88.47
11808;BME280;5961;42.640;23.380;2023-03-18T06:54:36;94367.22;;;3.15;88.63
11808;BME280;5961;42.640;23.380;2023-03-18T06:57:02;94377.84;;;3.29;88.94
11808;BME280;5961;42.640;23.380;2023-03-18T06:59:32;94371.97;;;3.37;89.47
11808;BME280;5961;42.640;23.380;2023-03-18T07:01:58;94377.69;;;3.44;89.63
11808;BME280;5961;42.640;23.380;2023-03-18T07:04:25;94367.63;;;3.51;88.79
11808;BME280;5961;42.640;23.380;2023-03-18T07:06:52;94356.63;;;3.49;88.77
11808;BME280;5961;42.640;23.380;2023-03-18T07:09:19;94366.50;;;3.57;88.20
11808;BME280;5961;42.640;23.380;2023-03-18T07:11:46;94379.78;;;3.71;87.62
11808;BME280;5961;42.640;23.380;2023-03-18T07:14:13;94367.19;;;3.68;86.96
11808;BME280;5961;42.640;23.380;2023-03-18T07:16:41;94379.44;;;3.77;86.83
11808;BME280;5961;42.640;23.380;2023-03-18T07:19:08;94378.00;;;3.85;87.22
11808;BME280;5961;42.640;23.380;2023-03-18T07:21:35;94370.47;;;3.78;87.46
11808;BME280;5961;42.640;23.380;2023-03-18T07:24:02;94372.50;;;3.86;86.92
11808;BME280;5961;42.640;23.380;2023-03-18T07:26:29;94379.59;;;3.86;87.50
11808;BME280;5961;42.640;23.380;2023-03-18T07:28:56;94375.63;;;3.88;86.75
11808;BME280;5961;42.640;23.380;2023-03-18T07:31:23;94380.56;;;3.90;88.01
11808;BME280;5961;42.640;23.380;2023-03-18T07:33:51;94373.22;;;3.92;87.79
11808;BME280;5961;42.640;23.380;2023-03-18T07:36:18;94381.25;;;4.01;88.08
11808;BME280;5961;42.640;23.380;2023-03-18T07:38:45;94382.03;;;4.01;88.77
11808;BME280;5961;42.640;23.380;2023-03-18T07:41:12;94376.47;;;4.03;88.37
11808;BME280;5961;42.640;23.380;2023-03-18T07:43:39;94306.06;;;3.57;88.43
11808;BME280;5961;42.640;23.380;2023-03-18T07:46:06;94384.03;;;4.09;88.17
11808;BME280;5961;42.640;23.380;2023-03-18T07:48:32;94385.38;;;4.07;87.90
11808;BME280;5961;42.640;23.380;2023-03-18T07:51:01;94385.31;;;4.12;88.35
11808;BME280;5961;42.640;23.380;2023-03-18T07:53:28;94392.63;;;4.15;88.29
11808;BME280;5961;42.640;23.380;2023-03-18T07:55:55;94368.53;;;4.08;89.41
11808;BME280;5961;42.640;23.380;2023-03-18T07:58:21;94395.47;;;4.18;89.41
11808;BME280;5961;42.640;23.380;2023-03-18T08:00:48;94388.03;;;4.25;89.34
11808;BME280;5961;42.640;23.380;2023-03-18T08:03:15;94378.22;;;4.31;88.70
11808;BME280;5961;42.640;23.380;2023-03-18T08:05:42;94383.34;;;4.22;89.91
11808;BME280;5961;42.640;23.380;2023-03-18T08:08:10;94384.97;;;4.37;89.80
11808;BME280;5961;42.640;23.380;2023-03-18T08:10:37;94367.13;;;4.34;89.15
11808;BME280;5961;42.640;23.380;2023-03-18T08:13:03;94372.75;;;4.46;88.60
11808;BME280;5961;42.640;23.380;2023-03-18T08:15:30;94376.28;;;4.55;87.64
11808;BME280;5961;42.640;23.380;2023-03-18T08:17:57;94383.25;;;4.65;87.93
11808;BME280;5961;42.640;23.380;2023-03-18T08:20:24;94386.81;;;4.74;87.87
11808;BME280;5961;42.640;23.380;2023-03-18T08:22:51;94372.94;;;4.68;87.03
11808;BME280;5961;42.640;23.380;2023-03-18T08:25:19;94361.56;;;4.54;86.29
11808;BME280;5961;42.640;23.380;2023-03-18T08:27:47;94388.28;;;4.80;88.00
11808;BME280;5961;42.640;23.380;2023-03-18T08:30:14;94221.78;;;3.72;87.98
11808;BME280;5961;42.640;23.380;2023-03-18T08:32:41;94384.63;;;4.94;88.00
11808;BME280;5961;42.640;23.380;2023-03-18T08:35:09;94387.38;;;5.03;87.69
11808;BME280;5961;42.640;23.380;2023-03-18T08:37:36;94389.19;;;5.08;86.97
11808;BME280;5961;42.640;23.380;2023-03-18T08:40:03;94343.84;;;4.60;85.94
11808;BME280;5961;42.640;23.380;2023-03-18T08:42:32;94387.72;;;5.15;84.92
11808;BME280;5961;42.640;23.380;2023-03-18T08:44:58;94388.50;;;5.16;85.88
11808;BME280;5961;42.640;23.380;2023-03-18T08:47:25;94386.66;;;5.16;86.25
11808;BME280;5961;42.640;23.380;2023-03-18T08:49:53;94372.13;;;5.19;85.88
11808;BME280;5961;42.640;23.380;2023-03-18T08:52:20;94389.22;;;5.35;84.80
11808;BME280;5961;42.640;23.380;2023-03-18T08:54:48;94373.41;;;5.35;84.18
11808;BME280;5961;42.640;23.380;2023-03-18T08:57:14;94390.31;;;5.47;85.33
11808;BME280;5961;42.640;23.380;2023-03-18T08:59:42;94394.03;;;5.60;84.63
11808;BME280;5961;42.640;23.380;2023-03-18T09:02:13;94337.09;;;5.32;83.86
11808;BME280;5961;42.640;23.380;2023-03-18T09:04:41;94387.59;;;5.66;83.29
11808;BME280;5961;42.640;23.380;2023-03-18T09:07:08;94399.03;;;5.75;82.25
11808;BME280;5961;42.640;23.380;2023-03-18T09:09:34;94396.78;;;5.82;82.47
11808;BME280;5961;42.640;23.380;2023-03-18T09:12:01;94402.00;;;5.87;81.69
11808;BME280;5961;42.640;23.380;2023-03-18T09:14:29;94395.53;;;5.93;81.49
11808;BME280;5961;42.640;23.380;2023-03-18T09:16:58;94404.34;;;6.02;80.42
11808;BME280;5961;42.640;23.380;2023-03-18T09:19:25;94407.66;;;6.08;80.04
11808;BME280;5961;42.640;23.380;2023-03-18T09:21:52;94412.34;;;6.11;78.66
11808;BME280;5961;42.640;23.380;2023-03-18T09:24:19;94416.63;;;6.21;77.59
11808;BME280;5961;42.640;23.380;2023-03-18T09:26:46;94403.44;;;6.21;75.23
11808;BME280;5961;42.640;23.380;2023-03-18T09:29:13;94406.16;;;6.29;73.17
11808;BME280;5961;42.640;23.380;2023-03-18T09:31:40;94413.09;;;6.39;73.65
11808;BME280;5961;42.640;23.380;2023-03-18T09:34:08;94411.91;;;6.45;74.35
11808;BME280;5961;42.640;23.380;2023-03-18T09:36:37;94418.03;;;6.54;73.62
11808;BME280;5961;42.640;23.380;2023-03-18T09:39:04;94407.06;;;6.60;70.72
11808;BME280;5961;42.640;23.380;2023-03-18T09:41:40;94398.97;;;6.57;70.14
11808;BME280;5961;42.640;23.380;2023-03-18T09:44:15;94420.22;;;6.74;68.99
11808;BME280;5961;42.640;23.380;2023-03-18T09:46:56;94406.63;;;6.81;70.16
11808;BME280;5961;42.640;23.380;2023-03-18T09:52:32;94402.38;;;6.93;66.72
11808;BME280;5961;42.640;23.380;2023-03-18T09:55:03;94406.47;;;6.99;67.12
11808;BME280;5961;42.640;23.380;2023-03-18T09:57:32;94407.63;;;7.07;66.38
11808;BME280;5961;42.640;23.380;2023-03-18T10:00:04;94413.56;;;7.12;67.30
11808;BME280;5961;42.640;23.380;2023-03-18T10:02:36;94399.75;;;7.15;67.95
11808;BME280;5961;42.640;23.380;2023-03-18T10:05:11;94377.25;;;7.04;68.04
11808;BME280;5961;42.640;23.380;2023-03-18T10:07:42;94415.09;;;7.36;67.02
11808;BME280;5961;42.640;23.380;2023-03-18T10:10:19;94413.41;;;7.40;63.82
11808;BME280;5961;42.640;23.380;2023-03-18T10:12:49;94399.69;;;7.38;61.39
11808;BME280;5961;42.640;23.380;2023-03-18T10:15:20;94418.56;;;7.45;61.96
11808;BME280;5961;42.640;23.380;2023-03-18T10:17:53;94409.38;;;7.42;57.27
11808;BME280;5961;42.640;23.380;2023-03-18T10:20:28;94415.47;;;7.43;55.98
11808;BME280;5961;42.640;23.380;2023-03-18T10:23:09;94379.53;;;7.19;57.08
11808;BME280;5961;42.640;23.380;2023-03-18T10:25:43;94394.97;;;7.26;57.90
11808;BME280;5961;42.640;23.380;2023-03-18T10:28:42;94402.53;;;7.41;58.27
11808;BME280;5961;42.640;23.380;2023-03-18T10:31:21;94397.22;;;7.41;56.85
11808;BME280;5961;42.640;23.380;2023-03-18T10:33:56;94396.34;;;7.46;56.53
11808;BME280;5961;42.640;23.380;2023-03-18T10:36:26;94394.16;;;7.48;57.27
11808;BME280;5961;42.640;23.380;2023-03-18T10:38:56;94401.97;;;7.53;58.33
11808;BME280;5961;42.640;23.380;2023-03-18T10:41:29;94396.38;;;7.54;57.09
11808;BME280;5961;42.640;23.380;2023-03-18T10:44:01;94400.13;;;7.62;58.64
11808;BME280;5961;42.640;23.380;2023-03-18T10:46:29;94396.28;;;7.68;59.04
11808;BME280;5961;42.640;23.380;2023-03-18T10:49:00;94396.81;;;7.79;56.73
11808;BME280;5961;42.640;23.380;2023-03-18T10:51:33;94397.31;;;7.89;54.53
11808;BME280;5961;42.640;23.380;2023-03-18T10:54:09;94393.31;;;8.00;55.34
11808;BME280;5961;42.640;23.380;2023-03-18T10:56:37;94389.56;;;8.10;53.79
11808;BME280;5961;42.640;23.380;2023-03-18T10:59:10;94371.22;;;8.13;52.50
11808;BME280;5961;42.640;23.380;2023-03-18T11:01:38;94379.34;;;8.25;50.02
11808;BME280;5961;42.640;23.380;2023-03-18T11:04:08;94383.16;;;8.42;51.02
11808;BME280;5961;42.640;23.380;2023-03-18T11:06:41;94373.97;;;8.56;51.77
11808;BME280;5961;42.640;23.380;2023-03-18T11:09:14;94376.78;;;8.77;52.35
11808;BME280;5961;42.640;23.380;2023-03-18T11:11:41;94373.84;;;8.78;48.45
11808;BME280;5961;42.640;23.380;2023-03-18T11:14:12;94364.78;;;8.71;48.80
11808;BME280;5961;42.640;23.380;2023-03-18T11:16:45;94361.66;;;8.69;49.46
11808;BME280;5961;42.640;23.380;2023-03-18T11:19:27;94387.72;;;8.67;46.83
11808;BME280;5961;42.640;23.380;2023-03-18T11:22:03;94373.19;;;8.56;47.03
11808;BME280;5961;42.640;23.380;2023-03-18T11:24:32;94370.53;;;8.64;47.87
11808;BME280;5961;42.640;23.380;2023-03-18T11:29:52;94359.63;;;8.92;48.01
11808;BME280;5961;42.640;23.380;2023-03-18T11:32:23;94362.91;;;8.80;47.24
11808;BME280;5961;42.640;23.380;2023-03-18T11:34:53;94362.56;;;9.07;48.69
11808;BME280;5961;42.640;23.380;2023-03-18T11:37:26;94358.84;;;9.08;47.04
11808;BME280;5961;42.640;23.380;2023-03-18T11:40:05;94349.34;;;8.99;49.04
11808;BME280;5961;42.640;23.380;2023-03-18T11:42:33;94353.41;;;8.96;48.31
11808;BME280;5961;42.640;23.380;2023-03-18T11:45:00;94356.22;;;8.91;47.42
11808;BME280;5961;42.640;23.380;2023-03-18T11:47:31;94351.38;;;8.85;48.02
11808;BME280;5961;42.640;23.380;2023-03-18T11:50:01;94357.00;;;9.00;48.59
11808;BME280;5961;42.640;23.380;2023-03-18T11:52:35;94351.66;;;9.17;50.47
11808;BME280;5961;42.640;23.380;2023-03-18T11:55:14;94347.09;;;9.26;50.53
11808;BME280;5961;42.640;23.380;2023-03-18T11:58:03;94350.56;;;9.18;49.44
11808;BME280;5961;42.640;23.380;2023-03-18T12:00:36;94358.81;;;9.25;50.71
11808;BME280;5961;42.640;23.380;2023-03-18T12:03:47;94351.81;;;9.21;48.78
11808;BME280;5961;42.640;23.380;2023-03-18T12:06:20;94355.69;;;9.23;48.53
11808;BME280;5961;42.640;23.380;2023-03-18T12:09:02;94360.69;;;9.16;49.02
11808;BME280;5961;42.640;23.380;2023-03-18T12:11:44;94325.31;;;8.95;48.87
11808;BME280;5961;42.640;23.380;2023-03-18T12:14:19;94354.47;;;9.12;49.18
11808;BME280;5961;42.640;23.380;2023-03-18T12:16:57;94349.44;;;9.36;47.83
11808;BME280;5961;42.640;23.380;2023-03-18T12:19:43;94352.69;;;9.42;49.26
11808;BME280;5961;42.640;23.380;2023-03-18T12:22:22;94348.00;;;9.39;48.02
11808;BME280;5961;42.640;23.380;2023-03-18T12:25:19;94350.69;;;9.30;47.50
11808;BME280;5961;42.640;23.380;2023-03-18T12:27:59;94350.38;;;9.23;47.56
11808;BME280;5961;42.640;23.380;2023-03-18T12:30:41;94364.16;;;9.08;48.63
11808;BME280;5961;42.640;23.380;2023-03-18T12:33:24;94359.16;;;8.98;48.33
11808;BME280;5961;42.640;23.380;2023-03-18T12:36:00;94355.25;;;9.04;49.15
11808;BME280;5961;42.640;23.380;2023-03-18T12:41:48;94350.97;;;9.37;49.53
11808;BME280;5961;42.640;23.380;2023-03-18T12:44:27;94344.44;;;9.35;47.81
11808;BME280;5961;42.640;23.380;2023-03-18T12:46:59;94362.06;;;9.31;47.63
11808;BME280;5961;42.640;23.380;2023-03-18T12:49:29;94346.44;;;9.38;48.67
11808;BME280;5961;42.640;23.380;2023-03-18T12:52:01;94349.88;;;9.38;50.30
11808;BME280;5961;42.640;23.380;2023-03-18T12:54:31;94352.84;;;9.46;48.27
11808;BME280;5961;42.640;23.380;2023-03-18T12:57:02;94346.84;;;9.66;47.30
11808;BME280;5961;42.640;23.380;2023-03-18T12:59:35;94357.47;;;9.95;46.40
11808;BME280;5961;42.640;23.380;2023-03-18T13:02:20;94352.66;;;10.26;44.85
11808;BME280;5961;42.640;23.380;2023-03-18T13:04:54;94350.41;;;10.58;43.13
11808;BME280;5961;42.640;23.380;2023-03-18T13:07:25;94333.22;;;10.76;42.56
11808;BME280;5961;42.640;23.380;2023-03-18T13:09:58;94323.50;;;10.80;42.70
11808;BME280;5961;42.640;23.380;2023-03-18T13:12:29;94337.88;;;10.79;42.32
11808;BME280;5961;42.640;23.380;2023-03-18T13:15:04;94347.50;;;10.71;42.35
11808;BME280;5961;42.640;23.380;2023-03-18T13:17:36;94340.97;;;10.69;41.91
11808;BME280;5961;42.640;23.380;2023-03-18T13:20:10;94343.84;;;10.76;42.64
11808;BME280;5961;42.640;23.380;2023-03-18T13:23:07;94344.81;;;10.92;42.02
11808;BME280;5961;42.640;23.380;2023-03-18T13:25:46;94347.22;;;11.06;40.18
11808;BME280;5961;42.640;23.380;2023-03-18T13:28:28;94356.34;;;11.17;41.14
11808;BME280;5961;42.640;23.380;2023-03-18T13:31:08;94344.44;;;11.35;40.02
11808;BME280;5961;42.640;23.380;2023-03-18T13:36:59;94334.44;;;10.99;39.88